sensor_id;sensor_type;location;lat;lon;timestamp;pressure;altitude;pressure_sealevel;temperature;humidity
18850;BME280;4989;48.772;9.154;2022-12-29T00:01:17;97590.66;;;10.16;74.89
18850;BME280;4989;48.772;9.154;2022-12-29T00:06:20;97591.25;;;10.24;74.67
18850;BME280;4989;48.772;9.154;2022-12-29T00:11:24;97589.72;;;10.23;74.92
18850;BME280;4989;48.772;9.154;2022-12-29T00:16:28;97585.91;;;10.20;74.62
18850;BME280;4989;48.772;9.154;2022-12-29T00:21:31;97572.19;;;10.40;74.44
18850;BME280;4989;48.772;9.154;2022-12-29T00:32:24;97556.22;;;10.42;73.80
18850;BME280;4989;48.772;9.154;2022-12-29T00:37:47;97557.59;;;10.63;73.78
18850;BME280;4989;48.772;9.154;2022-12-29T00:43:08;97548.03;;;10.71;73.16
18850;BME280;4989;48.772;9.154;2022-12-29T00:48:30;97547.69;;;10.57;73.44
18850;BME280;4989;48.772;9.154;2022-12-29T00:53:52;97548.72;;;10.46;73.60
18850;BME280;4989;48.772;9.154;2022-12-29T00:58:54;97547.00;;;10.52;73.62
18850;BME280;4989;48.772;9.154;2022-12-29T01:03:57;97550.81;;;10.55;73.50
18850;BME280;4989;48.772;9.154;2022-12-29T01:09:06;97545.09;;;10.66;72.92
18850;BME280;4989;48.772;9.154;2022-12-29T01:14:28;97553.69;;;10.77;72.91
18850;BME280;4989;48.772;9.154;2022-12-29T01:19:31;97562.63;;;10.77;73.22
18850;BME280;4989;48.772;9.154;2022-12-29T01:24:35;97563.50;;;10.74;73.34
18850;BME280;4989;48.772;9.154;2022-12-29T01:29:38;97557.72;;;10.85;73.38
18850;BME280;4989;48.772;9.154;2022-12-29T01:34:40;97560.97;;;10.80;73.56
18850;BME280;4989;48.772;9.154;2022-12-29T01:39:43;97558.81;;;10.88;73.69
18850;BME280;4989;48.772;9.154;2022-12-29T01:44:57;97562.94;;;10.80;74.43
18850;BME280;4989;48.772;9.154;2022-12-29T01:55:11;97560.97;;;10.80;75.04
18850;BME280;4989;48.772;9.154;2022-12-29T02:00:15;97554.78;;;10.80;75.53
18850;BME280;4989;48.772;9.154;2022-12-29T02:05:42;97541.19;;;10.80;75.17
18850;BME280;4989;48.772;9.154;2022-12-29T02:10:47;97540.00;;;10.81;75.33
18850;BME280;4989;48.772;9.154;2022-12-29T02:43:44;97519.59;;;10.34;83.37
18850;BME280;4989;48.772;9.154;2022-12-29T02:53:59;97506.34;;;10.36;99.32
18850;BME280;4989;48.772;9.154;2022-12-29T02:59:22;97502.94;;;11.60;93.70
18850;BME280;4989;48.772;9.154;2022-12-29T03:04:46;97508.97;;;11.77;79.63
18850;BME280;4989;48.772;9.154;2022-12-29T03:15:22;97510.09;;;10.93;80.73
18850;BME280;4989;48.772;9.154;2022-12-29T03:21:07;97495.28;;;11.07;79.46
18850;BME280;4989;48.772;9.154;2022-12-29T03:26:12;97495.69;;;10.29;83.16
18850;BME280;4989;48.772;9.154;2022-12-29T03:31:18;97484.81;;;10.29;83.51
18850;BME280;4989;48.772;9.154;2022-12-29T03:36:44;97476.59;;;10.96;86.53
18850;BME280;4989;48.772;9.154;2022-12-29T03:41:54;97479.72;;;10.44;81.78
18850;BME280;4989;48.772;9.154;2022-12-29T03:47:00;97471.69;;;10.91;76.75
18850;BME280;4989;48.772;9.154;2022-12-29T03:52:02;97451.66;;;11.23;74.67
18850;BME280;4989;48.772;9.154;2022-12-29T03:57:12;97450.22;;;11.19;75.11
18850;BME280;4989;48.772;9.154;2022-12-29T04:02:26;97466.19;;;11.77;89.87
18850;BME280;4989;48.772;9.154;2022-12-29T04:07:29;97473.00;;;11.60;74.88
18850;BME280;4989;48.772;9.154;2022-12-29T04:12:32;97466.25;;;11.52;74.76
18850;BME280;4989;48.772;9.154;2022-12-29T04:17:35;97471.28;;;11.40;80.53
18850;BME280;4989;48.772;9.154;2022-12-29T04:22:39;97488.03;;;11.52;75.41
18850;BME280;4989;48.772;9.154;2022-12-29T04:27:42;97500.75;;;11.55;77.83
18850;BME280;4989;48.772;9.154;2022-12-29T04:33:08;97496.84;;;11.56;76.48
18850;BME280;4989;48.772;9.154;2022-12-29T04:38:10;97480.25;;;11.41;80.25
18850;BME280;4989;48.772;9.154;2022-12-29T04:43:14;97466.63;;;11.41;86.19
18850;BME280;4989;48.772;9.154;2022-12-29T04:48:55;97483.22;;;11.56;77.14
18850;BME280;4989;48.772;9.154;2022-12-29T04:54:09;97474.66;;;11.79;90.50
18850;BME280;4989;48.772;9.154;2022-12-29T04:59:12;97493.41;;;11.77;81.31
18850;BME280;4989;48.772;9.154;2022-12-29T05:04:17;97515.78;;;11.59;77.71
18850;BME280;4989;48.772;9.154;2022-12-29T05:09:20;97486.31;;;11.45;78.21
18850;BME280;4989;48.772;9.154;2022-12-29T05:14:22;97476.03;;;11.62;78.69
18850;BME280;4989;48.772;9.154;2022-12-29T05:19:25;97477.16;;;11.52;78.04
18850;BME280;4989;48.772;9.154;2022-12-29T05:24:28;97469.44;;;11.50;80.16
18850;BME280;4989;48.772;9.154;2022-12-29T05:29:32;97471.63;;;11.42;78.69
18850;BME280;4989;48.772;9.154;2022-12-29T05:34:35;97491.47;;;11.30;79.65
18850;BME280;4989;48.772;9.154;2022-12-29T05:39:38;97491.59;;;11.61;80.93
18850;BME280;4989;48.772;9.154;2022-12-29T05:44:42;97470.81;;;11.55;78.37
18850;BME280;4989;48.772;9.154;2022-12-29T05:49:54;97473.38;;;11.36;79.34
18850;BME280;4989;48.772;9.154;2022-12-29T05:55:06;97483.22;;;11.56;78.98
18850;BME280;4989;48.772;9.154;2022-12-29T06:00:11;97479.78;;;11.42;78.60
18850;BME280;4989;48.772;9.154;2022-12-29T06:05:16;97466.72;;;11.37;78.19
18850;BME280;4989;48.772;9.154;2022-12-29T06:10:19;97441.53;;;11.24;79.24
18850;BME280;4989;48.772;9.154;2022-12-29T06:15:30;97421.19;;;11.29;79.17
18850;BME280;4989;48.772;9.154;2022-12-29T06:20:33;97428.56;;;11.28;78.30
18850;BME280;4989;48.772;9.154;2022-12-29T06:25:39;97437.38;;;11.32;78.47
18850;BME280;4989;48.772;9.154;2022-12-29T06:30:44;97447.22;;;11.52;77.65
18850;BME280;4989;48.772;9.154;2022-12-29T06:35:47;97450.69;;;11.52;76.53
18850;BME280;4989;48.772;9.154;2022-12-29T06:40:50;97443.44;;;11.36;77.28
18850;BME280;4989;48.772;9.154;2022-12-29T06:46:16;97447.25;;;11.39;77.05
18850;BME280;4989;48.772;9.154;2022-12-29T06:51:19;97450.19;;;11.44;76.63
18850;BME280;4989;48.772;9.154;2022-12-29T06:56:22;97437.00;;;11.43;78.54
18850;BME280;4989;48.772;9.154;2022-12-29T07:01:24;97444.88;;;11.98;85.06
18850;BME280;4989;48.772;9.154;2022-12-29T07:06:27;97447.34;;;11.48;75.37
18850;BME280;4989;48.772;9.154;2022-12-29T07:11:29;97451.31;;;11.21;76.34
18850;BME280;4989;48.772;9.154;2022-12-29T07:16:32;97452.75;;;11.13;76.10
18850;BME280;4989;48.772;9.154;2022-12-29T07:21:36;97453.81;;;11.29;81.12
18850;BME280;4989;48.772;9.154;2022-12-29T07:26:39;97460.75;;;11.77;82.03
18850;BME280;4989;48.772;9.154;2022-12-29T07:31:41;97468.91;;;11.42;74.86
18850;BME280;4989;48.772;9.154;2022-12-29T07:36:44;97472.03;;;11.54;75.63
18850;BME280;4989;48.772;9.154;2022-12-29T07:41:46;97470.16;;;11.16;75.57
18850;BME280;4989;48.772;9.154;2022-12-29T07:46:53;97467.84;;;11.27;76.81
18850;BME280;4989;48.772;9.154;2022-12-29T07:51:58;97477.63;;;11.37;76.97
18850;BME280;4989;48.772;9.154;2022-12-29T07:57:00;97465.31;;;11.45;76.55
18850;BME280;4989;48.772;9.154;2022-12-29T08:02:03;97460.09;;;11.38;78.16
18850;BME280;4989;48.772;9.154;2022-12-29T08:07:06;97467.69;;;11.78;76.87
18850;BME280;4989;48.772;9.154;2022-12-29T08:12:10;97472.44;;;12.00;76.95
18850;BME280;4989;48.772;9.154;2022-12-29T08:17:13;97494.94;;;11.78;75.55
18850;BME280;4989;48.772;9.154;2022-12-29T08:22:15;97500.63;;;11.71;76.06
18850;BME280;4989;48.772;9.154;2022-12-29T08:27:18;97491.97;;;11.51;75.68
18850;BME280;4989;48.772;9.154;2022-12-29T08:32:22;97491.13;;;11.28;76.14
18850;BME280;4989;48.772;9.154;2022-12-29T08:37:25;97490.66;;;11.42;75.48
18850;BME280;4989;48.772;9.154;2022-12-29T08:42:32;97476.97;;;11.33;76.39
18850;BME280;4989;48.772;9.154;2022-12-29T08:47:36;97477.91;;;11.52;75.59
18850;BME280;4989;48.772;9.154;2022-12-29T08:52:38;97481.56;;;11.71;74.80
18850;BME280;4989;48.772;9.154;2022-12-29T08:57:41;97480.47;;;11.68;74.75
18850;BME280;4989;48.772;9.154;2022-12-29T09:02:54;97488.88;;;12.18;74.59
18850;BME280;4989;48.772;9.154;2022-12-29T09:07:57;97497.50;;;11.60;75.20
18850;BME280;4989;48.772;9.154;2022-12-29T09:12:59;97508.00;;;11.83;75.13
18850;BME280;4989;48.772;9.154;2022-12-29T09:18:02;97517.34;;;11.82;75.45
18850;BME280;4989;48.772;9.154;2022-12-29T09:23:04;97518.69;;;11.78;74.91
18850;BME280;4989;48.772;9.154;2022-12-29T09:28:08;97515.19;;;11.77;74.70
18850;BME280;4989;48.772;9.154;2022-12-29T09:33:11;97523.47;;;11.86;74.26
18850;BME280;4989;48.772;9.154;2022-12-29T09:38:13;97541.72;;;11.99;74.22
18850;BME280;4989;48.772;9.154;2022-12-29T09:48:37;97533.66;;;11.95;74.14
18850;BME280;4989;48.772;9.154;2022-12-29T09:53:46;97521.91;;;12.20;73.14
18850;BME280;4989;48.772;9.154;2022-12-29T09:59:10;97535.66;;;12.38;72.51
18850;BME280;4989;48.772;9.154;2022-12-29T10:04:15;97525.06;;;12.19;73.74
18850;BME280;4989;48.772;9.154;2022-12-29T10:25:25;97524.75;;;13.01;71.06
18850;BME280;4989;48.772;9.154;2022-12-29T10:30:35;97523.44;;;13.15;70.85
18850;BME280;4989;48.772;9.154;2022-12-29T10:35:40;97516.34;;;13.17;70.66
18850;BME280;4989;48.772;9.154;2022-12-29T10:41:00;97527.66;;;13.38;70.13
18850;BME280;4989;48.772;9.154;2022-12-29T10:46:13;97519.84;;;13.86;73.91
18850;BME280;4989;48.772;9.154;2022-12-29T10:51:26;97523.88;;;13.54;69.84
18850;BME280;4989;48.772;9.154;2022-12-29T10:56:33;97515.56;;;13.85;69.88
18850;BME280;4989;48.772;9.154;2022-12-29T11:01:42;97520.22;;;14.39;68.06
18850;BME280;4989;48.772;9.154;2022-12-29T11:06:49;97516.47;;;14.00;67.18
18850;BME280;4989;48.772;9.154;2022-12-29T11:11:52;97523.59;;;13.70;68.76
18850;BME280;4989;48.772;9.154;2022-12-29T11:17:03;97529.53;;;13.68;70.07
18850;BME280;4989;48.772;9.154;2022-12-29T11:22:21;97537.25;;;13.70;69.84
18850;BME280;4989;48.772;9.154;2022-12-29T11:27:25;97531.13;;;13.38;69.78
18850;BME280;4989;48.772;9.154;2022-12-29T11:32:29;97528.84;;;13.37;69.96
18850;BME280;4989;48.772;9.154;2022-12-29T11:37:36;97545.97;;;13.37;70.75
18850;BME280;4989;48.772;9.154;2022-12-29T11:42:50;97566.34;;;13.14;73.76
18850;BME280;4989;48.772;9.154;2022-12-29T11:48:01;97544.44;;;13.27;77.25
18850;BME280;4989;48.772;9.154;2022-12-29T11:58:34;97547.75;;;12.91;80.92
18850;BME280;4989;48.772;9.154;2022-12-29T12:03:48;97533.78;;;12.89;84.02
18850;BME280;4989;48.772;9.154;2022-12-29T12:09:00;97526.88;;;12.66;85.47
18850;BME280;4989;48.772;9.154;2022-12-29T12:14:21;97526.75;;;12.69;86.28
18850;BME280;4989;48.772;9.154;2022-12-29T12:20:02;97520.13;;;12.79;83.45
18850;BME280;4989;48.772;9.154;2022-12-29T12:25:25;97520.69;;;12.65;82.27
18850;BME280;4989;48.772;9.154;2022-12-29T12:30:40;97529.00;;;12.71;81.82
18850;BME280;4989;48.772;9.154;2022-12-29T12:35:53;97511.88;;;12.92;80.88
18850;BME280;4989;48.772;9.154;2022-12-29T12:46:58;97518.28;;;12.76;84.62
18850;BME280;4989;48.772;9.154;2022-12-29T13:03:10;97486.59;;;12.70;87.83
18850;BME280;4989;48.772;9.154;2022-12-29T13:08:58;97495.00;;;12.84;87.45
18850;BME280;4989;48.772;9.154;2022-12-29T13:19:30;97490.22;;;12.67;88.75
18850;BME280;4989;48.772;9.154;2022-12-29T13:36:03;97488.66;;;12.88;86.53
18850;BME280;4989;48.772;9.154;2022-12-29T13:40:51;97484.34;;;12.68;87.42
18850;BME280;4989;48.772;9.154;2022-12-29T13:46:12;97488.25;;;12.67;88.35
18850;BME280;4989;48.772;9.154;2022-12-29T13:51:15;97480.75;;;12.80;87.45
18850;BME280;4989;48.772;9.154;2022-12-29T14:07:05;97483.47;;;12.80;88.79
18850;BME280;4989;48.772;9.154;2022-12-29T14:17:36;97484.41;;;12.55;90.22
18850;BME280;4989;48.772;9.154;2022-12-29T14:23:00;97501.31;;;12.72;89.54
18850;BME280;4989;48.772;9.154;2022-12-29T14:28:19;97493.75;;;12.76;89.56
18850;BME280;4989;48.772;9.154;2022-12-29T14:33:27;97491.34;;;12.78;88.89
18850;BME280;4989;48.772;9.154;2022-12-29T14:38:30;97491.34;;;12.78;89.50
18850;BME280;4989;48.772;9.154;2022-12-29T14:43:33;97502.13;;;12.51;90.10
18850;BME280;4989;48.772;9.154;2022-12-29T14:48:44;97505.72;;;12.48;90.17
18850;BME280;4989;48.772;9.154;2022-12-29T14:53:48;97495.41;;;12.43;90.01
18850;BME280;4989;48.772;9.154;2022-12-29T14:58:56;97490.22;;;12.35;90.46
18850;BME280;4989;48.772;9.154;2022-12-29T15:04:13;97487.88;;;12.47;90.01
18850;BME280;4989;48.772;9.154;2022-12-29T15:14:39;97486.22;;;12.27;90.49
18850;BME280;4989;48.772;9.154;2022-12-29T15:19:42;97473.09;;;12.13;90.45
18850;BME280;4989;48.772;9.154;2022-12-29T15:24:45;97485.84;;;12.16;90.19
18850;BME280;4989;48.772;9.154;2022-12-29T15:29:59;97484.94;;;12.19;88.91
18850;BME280;4989;48.772;9.154;2022-12-29T15:40:27;97512.41;;;12.03;89.02
18850;BME280;4989;48.772;9.154;2022-12-29T15:45:33;97519.75;;;12.15;89.03
18850;BME280;4989;48.772;9.154;2022-12-29T15:50:38;97532.53;;;12.27;87.64
18850;BME280;4989;48.772;9.154;2022-12-29T15:55:44;97549.34;;;12.48;87.61
18850;BME280;4989;48.772;9.154;2022-12-29T16:00:51;97570.00;;;12.58;91.55
18850;BME280;4989;48.772;9.154;2022-12-29T16:06:05;97576.31;;;12.11;94.71
18850;BME280;4989;48.772;9.154;2022-12-29T16:11:32;97588.75;;;11.39;99.94
18850;BME280;4989;48.772;9.154;2022-12-29T16:16:39;97582.09;;;11.27;100.00
18850;BME280;4989;48.772;9.154;2022-12-29T16:21:44;97577.97;;;11.10;100.00
18850;BME280;4989;48.772;9.154;2022-12-29T16:26:54;97594.63;;;11.12;100.00
18850;BME280;4989;48.772;9.154;2022-12-29T16:31:59;97580.25;;;11.11;100.00
18850;BME280;4989;48.772;9.154;2022-12-29T16:37:05;97583.41;;;11.10;100.00
18850;BME280;4989;48.772;9.154;2022-12-29T16:42:45;97591.78;;;11.15;100.00
18850;BME280;4989;48.772;9.154;2022-12-29T16:58:27;97624.75;;;11.30;100.00
18850;BME280;4989;48.772;9.154;2022-12-29T17:03:56;97625.53;;;11.18;100.00
18850;BME280;4989;48.772;9.154;2022-12-29T17:08:59;97625.56;;;10.76;100.00
18850;BME280;4989;48.772;9.154;2022-12-29T17:14:02;97622.63;;;10.83;100.00
18850;BME280;4989;48.772;9.154;2022-12-29T17:19:04;97618.72;;;10.84;100.00
18850;BME280;4989;48.772;9.154;2022-12-29T17:24:18;97625.41;;;11.09;100.00
18850;BME280;4989;48.772;9.154;2022-12-29T17:29:33;97624.94;;;10.97;100.00
18850;BME280;4989;48.772;9.154;2022-12-29T17:34:39;97633.97;;;10.94;100.00
18850;BME280;4989;48.772;9.154;2022-12-29T17:39:42;97629.13;;;11.15;100.00
18850;BME280;4989;48.772;9.154;2022-12-29T17:44:45;97640.44;;;11.26;100.00
18850;BME280;4989;48.772;9.154;2022-12-29T17:49:48;97646.13;;;11.32;100.00
18850;BME280;4989;48.772;9.154;2022-12-29T17:54:52;97634.78;;;11.33;100.00
18850;BME280;4989;48.772;9.154;2022-12-29T17:59:56;97645.22;;;11.22;100.00
18850;BME280;4989;48.772;9.154;2022-12-29T18:04:59;97649.44;;;11.10;100.00
18850;BME280;4989;48.772;9.154;2022-12-29T18:10:02;97640.75;;;11.03;100.00
18850;BME280;4989;48.772;9.154;2022-12-29T18:15:06;97642.72;;;11.15;100.00
18850;BME280;4989;48.772;9.154;2022-12-29T18:20:08;97648.25;;;10.98;100.00
18850;BME280;4989;48.772;9.154;2022-12-29T18:30:32;97650.91;;;10.86;100.00
18850;BME280;4989;48.772;9.154;2022-12-29T18:35:40;97653.34;;;11.09;100.00
18850;BME280;4989;48.772;9.154;2022-12-29T18:40:44;97654.91;;;11.23;100.00
18850;BME280;4989;48.772;9.154;2022-12-29T18:45:47;97656.09;;;11.22;100.00
18850;BME280;4989;48.772;9.154;2022-12-29T18:50:50;97647.81;;;11.13;100.00
18850;BME280;4989;48.772;9.154;2022-12-29T18:55:53;97652.47;;;10.99;100.00
18850;BME280;4989;48.772;9.154;2022-12-29T19:00:58;97672.38;;;10.96;100.00
18850;BME280;4989;48.772;9.154;2022-12-29T19:06:01;97662.38;;;10.93;100.00
18850;BME280;4989;48.772;9.154;2022-12-29T19:11:04;97669.63;;;10.54;100.00
18850;BME280;4989;48.772;9.154;2022-12-29T19:16:11;97667.72;;;10.68;100.00
18850;BME280;4989;48.772;9.154;2022-12-29T19:21:18;97672.72;;;10.24;100.00
18850;BME280;4989;48.772;9.154;2022-12-29T19:26:32;97679.19;;;10.14;100.00
18850;BME280;4989;48.772;9.154;2022-12-29T19:31:38;97678.16;;;10.07;100.00
18850;BME280;4989;48.772;9.154;2022-12-29T19:36:42;97667.72;;;10.06;100.00
18850;BME280;4989;48.772;9.154;2022-12-29T19:41:44;97673.50;;;9.92;100.00
18850;BME280;4989;48.772;9.154;2022-12-29T19:46:47;97661.94;;;10.04;100.00
18850;BME280;4989;48.772;9.154;2022-12-29T19:51:50;97662.78;;;10.01;100.00
18850;BME280;4989;48.772;9.154;2022-12-29T19:56:54;97661.53;;;10.05;100.00
18850;BME280;4989;48.772;9.154;2022-12-29T20:01:56;97660.84;;;10.01;100.00
18850;BME280;4989;48.772;9.154;2022-12-29T20:06:59;97665.50;;;10.01;100.00
18850;BME280;4989;48.772;9.154;2022-12-29T20:12:02;97669.53;;;9.96;100.00
18850;BME280;4989;48.772;9.154;2022-12-29T20:17:05;97686.97;;;9.95;100.00
18850;BME280;4989;48.772;9.154;2022-12-29T20:22:13;97693.91;;;9.63;100.00
18850;BME280;4989;48.772;9.154;2022-12-29T20:27:15;97689.78;;;9.92;100.00
18850;BME280;4989;48.772;9.154;2022-12-29T20:32:20;97700.03;;;9.68;100.00
18850;BME280;4989;48.772;9.154;2022-12-29T20:37:26;97704.94;;;9.56;100.00
18850;BME280;4989;48.772;9.154;2022-12-29T20:42:28;97704.75;;;9.47;100.00
18850;BME280;4989;48.772;9.154;2022-12-29T20:47:31;97713.09;;;9.56;100.00
18850;BME280;4989;48.772;9.154;2022-12-29T20:52:34;97719.78;;;9.32;100.00
18850;BME280;4989;48.772;9.154;2022-12-29T20:57:36;97733.00;;;9.30;100.00
18850;BME280;4989;48.772;9.154;2022-12-29T21:02:59;97734.69;;;9.24;100.00
18850;BME280;4989;48.772;9.154;2022-12-29T21:08:03;97754.22;;;9.15;100.00
18850;BME280;4989;48.772;9.154;2022-12-29T21:13:06;97745.31;;;9.14;100.00
18850;BME280;4989;48.772;9.154;2022-12-29T21:18:08;97745.03;;;9.29;100.00
18850;BME280;4989;48.772;9.154;2022-12-29T21:23:11;97749.69;;;9.08;100.00
18850;BME280;4989;48.772;9.154;2022-12-29T21:28:14;97751.06;;;9.16;100.00
18850;BME280;4989;48.772;9.154;2022-12-29T21:33:19;97762.31;;;8.95;100.00
18850;BME280;4989;48.772;9.154;2022-12-29T21:38:22;97751.78;;;8.81;100.00
18850;BME280;4989;48.772;9.154;2022-12-29T21:43:25;97756.38;;;8.60;100.00
18850;BME280;4989;48.772;9.154;2022-12-29T21:48:27;97769.31;;;8.49;100.00
18850;BME280;4989;48.772;9.154;2022-12-29T21:53:33;97752.25;;;8.52;100.00
18850;BME280;4989;48.772;9.154;2022-12-29T21:58:41;97736.91;;;8.45;100.00
18850;BME280;4989;48.772;9.154;2022-12-29T22:04:03;97726.91;;;8.42;100.00
18850;BME280;4989;48.772;9.154;2022-12-29T22:09:24;97754.03;;;8.39;100.00
18850;BME280;4989;48.772;9.154;2022-12-29T22:14:45;97771.97;;;8.29;100.00
18850;BME280;4989;48.772;9.154;2022-12-29T22:19:48;97782.56;;;8.16;100.00
18850;BME280;4989;48.772;9.154;2022-12-29T22:24:51;97773.53;;;8.26;100.00
18850;BME280;4989;48.772;9.154;2022-12-29T22:29:53;97786.72;;;8.24;100.00
18850;BME280;4989;48.772;9.154;2022-12-29T22:34:56;97793.19;;;8.31;100.00
18850;BME280;4989;48.772;9.154;2022-12-29T22:39:59;97800.50;;;8.34;100.00
18850;BME280;4989;48.772;9.154;2022-12-29T22:45:02;97826.75;;;8.37;100.00
18850;BME280;4989;48.772;9.154;2022-12-29T22:50:05;97826.06;;;8.33;100.00
18850;BME280;4989;48.772;9.154;2022-12-29T22:55:08;97851.53;;;8.39;100.00
18850;BME280;4989;48.772;9.154;2022-12-29T23:00:11;97835.28;;;8.39;100.00
18850;BME280;4989;48.772;9.154;2022-12-29T23:05:14;97850.75;;;8.35;100.00
18850;BME280;4989;48.772;9.154;2022-12-29T23:10:17;97848.09;;;8.31;100.00
18850;BME280;4989;48.772;9.154;2022-12-29T23:15:19;97859.34;;;8.30;100.00
18850;BME280;4989;48.772;9.154;2022-12-29T23:20:22;97861.03;;;8.20;100.00
18850;BME280;4989;48.772;9.154;2022-12-29T23:25:25;97867.00;;;8.35;100.00
18850;BME280;4989;48.772;9.154;2022-12-29T23:30:27;97875.50;;;8.37;100.00
18850;BME280;4989;48.772;9.154;2022-12-29T23:35:30;97875.88;;;8.39;100.00
18850;BME280;4989;48.772;9.154;2022-12-29T23:40:32;97887.84;;;8.38;100.00
18850;BME280;4989;48.772;9.154;2022-12-29T23:45:36;97891.09;;;8.29;100.00
18850;BME280;4989;48.772;9.154;2022-12-29T23:50:39;97886.50;;;8.22;100.00
18850;BME280;4989;48.772;9.154;2022-12-29T23:55:43;97880.84;;;8.13;100.00
